Time;durP1;ratioP1;P1;durP2;ratioP2;P2;SDS_P1;SDS_P2;PMS_P1;PMS_P2;Temp;Humidity;BMP_temperature;BMP_pressure;BME280_temperature;BME280_humidity;BME280_pressure;Samples;Min_cycle;Max_cycle;Signal;HPM_P1;HPM_P2
2019/07/11 00:02:02;;;;;;;3.5;2.2;;;;;;;13.14;72.74414;939.91;;;;
2019/07/11 00:04:30;;;;;;;4.1;2.3;;;;;;;13.18;72.33594;939.8984;;;;
2019/07/11 00:06:56;;;;;;;5.1;2.2;;;;;;;13.17;72.14941;939.8566;;;;
2019/07/11 00:09:19;;;;;;;3.4;2;;;;;;;13.05;72.05078;939.9066;;;;
2019/07/11 00:11:43;;;;;;;3.3;1.9;;;;;;;13.06;72.08594;939.8163;;;;
2019/07/11 00:14:11;;;;;;;5.5;2.2;;;;;;;13.11;71.99121;939.8452;;;;
2019/07/11 00:16:37;;;;;;;4;2.2;;;;;;;13.09;71.69141;939.7957;;;;
2019/07/11 00:19:00;;;;;;;3;2.2;;;;;;;13.03;72.15137;939.7507;;;;
2019/07/11 00:21:24;;;;;;;3.7;2.3;;;;;;;13.02;72.16113;939.6795;;;;
2019/07/11 00:23:51;;;;;;;8.7;2.5;;;;;;;13.03;71.83984;939.7131;;;;
2019/07/11 00:26:16;;;;;;;4.9;2.3;;;;;;;13.03;71.64648;939.7123;;;;
2019/07/11 00:28:39;;;;;;;3.9;2.1;;;;;;;13.03;71.75977;939.6531;;;;
2019/07/11 00:31:05;;;;;;;3.8;2.1;;;;;;;12.7;72.80762;939.5925;;;;
2019/07/11 00:33:29;;;;;;;4.3;2;;;;;;;12.43;74.05762;939.5769;;;;
2019/07/11 00:35:59;;;;;;;5;2.4;;;;;;;12.44;73.80762;939.5162;;;;
2019/07/11 00:38:20;;;;;;;4.1;2;;;;;;;12.38;74.27832;939.4925;;;;
2019/07/11 00:40:45;;;;;;;4.5;2.1;;;;;;;11.95;75.94824;939.5296;;;;
2019/07/11 00:43:09;;;;;;;3.9;2.1;;;;;;;11.79;76.60547;939.5283;;;;
2019/07/11 00:45:37;;;;;;;5.4;2.4;;;;;;;11.88;76.07129;939.5323;;;;
2019/07/11 00:48:03;;;;;;;2.7;1.9;;;;;;;11.88;75.76172;939.4941;;;;
2019/07/11 00:50:25;;;;;;;4.7;2;;;;;;;11.93;75.85156;939.5023;;;;
2019/07/11 00:52:49;;;;;;;4.7;2.2;;;;;;;12.05;75.90625;939.4778;;;;
2019/07/11 00:55:22;;;;;;;4.5;2.1;;;;;;;12;76.4834;939.3544;;;;
2019/07/11 00:57:41;;;;;;;3.8;2.2;;;;;;;12.21;75.92383;939.4196;;;;
2019/07/11 01:00:05;;;;;;;3.2;2.3;;;;;;;12.27;74.95898;939.3331;;;;
2019/07/11 01:02:31;;;;;;;3.3;2.2;;;;;;;12.13;75.42773;939.2955;;;;
2019/07/11 01:04:57;;;;;;;4.2;2.2;;;;;;;11.93;76.5166;939.3276;;;;
2019/07/11 01:07:24;;;;;;;4.9;2.2;;;;;;;12.09;75.79883;939.304;;;;
2019/07/11 01:09:49;;;;;;;4.2;2.3;;;;;;;12.27;74.94727;939.3882;;;;
2019/07/11 01:12:15;;;;;;;4.9;2.3;;;;;;;12.25;75.10449;939.2795;;;;
2019/07/11 01:14:42;;;;;;;4.2;2.1;;;;;;;12.45;74.33594;939.2639;;;;
2019/07/11 01:17:03;;;;;;;3.1;2.1;;;;;;;12.55;74.03223;939.2155;;;;
2019/07/11 01:19:28;;;;;;;3.9;2.2;;;;;;;12.47;74.0293;939.2664;;;;
2019/07/11 01:22:01;;;;;;;4.5;2.2;;;;;;;12.14;74.90234;939.2684;;;;
2019/07/11 01:24:24;;;;;;;3;2.2;;;;;;;12.22;74.91504;939.2275;;;;
2019/07/11 01:26:48;;;;;;;2.7;2.2;;;;;;;12.03;75.35352;939.1904;;;;
2019/07/11 01:29:16;;;;;;;3.6;2.3;;;;;;;11.98;75.72266;939.11;;;;
2019/07/11 01:31:39;;;;;;;4;2.1;;;;;;;11.99;75.58789;939.134;;;;
2019/07/11 01:34:05;;;;;;;2.6;2.2;;;;;;;12.01;75.43066;939.1365;;;;
2019/07/11 01:36:30;;;;;;;4.1;2.4;;;;;;;11.95;75.71777;939.0659;;;;
2019/07/11 01:38:57;;;;;;;3.5;2.5;;;;;;;11.94;75.85352;939.0284;;;;
2019/07/11 01:41:20;;;;;;;3.3;2.3;;;;;;;11.94;75.94531;939.0667;;;;
2019/07/11 01:43:45;;;;;;;3.5;2.4;;;;;;;11.96;75.85645;939.1203;;;;
2019/07/11 01:46:10;;;;;;;5.4;2.6;;;;;;;11.98;75.64355;939.1141;;;;
2019/07/11 01:48:38;;;;;;;3.9;2.5;;;;;;;11.81;76.16211;939.1096;;;;
2019/07/11 01:50:59;;;;;;;3;2.3;;;;;;;11.64;76.83008;938.9774;;;;
2019/07/11 01:53:25;;;;;;;3.9;2.4;;;;;;;11.67;76.58301;938.9998;;;;
2019/07/11 01:55:50;;;;;;;4.4;2.3;;;;;;;11.83;75.70801;939.0014;;;;
2019/07/11 01:58:17;;;;;;;2.7;2.4;;;;;;;11.88;75.58984;938.9371;;;;
2019/07/11 02:00:41;;;;;;;4.2;2.2;;;;;;;11.62;76.78223;938.9191;;;;
2019/07/11 02:03:05;;;;;;;3.7;2.3;;;;;;;11.69;76.77246;938.9673;;;;
2019/07/11 02:05:30;;;;;;;4.2;2.5;;;;;;;11.93;75.64551;938.9325;;;;
2019/07/11 02:08:00;;;;;;;4.8;2.3;;;;;;;11.95;75.58008;938.8832;;;;
2019/07/11 02:10:26;;;;;;;3.4;2.4;;;;;;;11.53;77.23535;938.8425;;;;
2019/07/11 02:12:55;;;;;;;13.1;4;;;;;;;11.31;78.37402;938.8382;;;;
2019/07/11 02:15:22;;;;;;;4.6;2.5;;;;;;;11.23;78.78027;938.8679;;;;
2019/07/11 02:17:55;;;;;;;7;2.6;;;;;;;11.48;77.56738;938.8141;;;;
2019/07/11 02:20:17;;;;;;;7;2.7;;;;;;;11.34;78.10547;938.8353;;;;
2019/07/11 02:22:38;;;;;;;3.8;2.4;;;;;;;11.64;76.92285;938.9088;;;;
2019/07/11 02:25:04;;;;;;;3.5;2.3;;;;;;;11.41;77.8877;938.8033;;;;
2019/07/11 02:27:32;;;;;;;3.5;2.4;;;;;;;11.4;77.71484;938.8293;;;;
2019/07/11 02:29:57;;;;;;;4.3;2.5;;;;;;;11.6;77.31543;938.7679;;;;
2019/07/11 02:32:22;;;;;;;4.2;2.5;;;;;;;11.93;75.72559;938.7148;;;;
2019/07/11 02:34:50;;;;;;;4.5;2.4;;;;;;;11.97;75.36523;938.7022;;;;
2019/07/11 02:37:15;;;;;;;2.9;2.2;;;;;;;11.99;75.08203;938.7517;;;;
2019/07/11 02:39:40;;;;;;;3.3;2.3;;;;;;;11.5;77.32031;938.6588;;;;
2019/07/11 02:42:09;;;;;;;3.6;2.4;;;;;;;11.32;78.35254;938.6589;;;;
2019/07/11 02:44:31;;;;;;;5.7;2.6;;;;;;;11.36;78.07324;938.5148;;;;
2019/07/11 02:46:57;;;;;;;6.9;2.8;;;;;;;11.15;78.84766;938.5219;;;;
2019/07/11 02:49:26;;;;;;;14.4;6.2;;;;;;;10.96;79.87695;938.54;;;;
2019/07/11 02:51:53;;;;;;;13.4;5.6;;;;;;;11.09;79.51172;938.5828;;;;
2019/07/11 02:54:21;;;;;;;9;4.6;;;;;;;11.3;79.41309;938.4778;;;;
2019/07/11 02:56:44;;;;;;;13;5.6;;;;;;;11.57;78.14648;938.558;;;;
2019/07/11 02:59:09;;;;;;;18.1;7.2;;;;;;;11.69;76.70215;938.4999;;;;
2019/07/11 03:01:35;;;;;;;15.9;6.7;;;;;;;11.49;77.41113;938.532;;;;
2019/07/11 03:04:01;;;;;;;14.4;5.5;;;;;;;11.58;76.96875;938.5525;;;;
2019/07/11 03:06:30;;;;;;;9.9;4.4;;;;;;;11.57;77.00195;938.5708;;;;
2019/07/11 03:08:57;;;;;;;14.1;4.5;;;;;;;11.41;77.4873;938.5567;;;;
2019/07/11 03:11:20;;;;;;;4;2.9;;;;;;;11.14;78.61816;938.5019;;;;
2019/07/11 03:13:47;;;;;;;3.9;2.7;;;;;;;10.98;79.24023;938.4614;;;;
2019/07/11 03:16:11;;;;;;;4.4;2.8;;;;;;;10.77;80.54883;938.4943;;;;
2019/07/11 03:18:38;;;;;;;4.5;2.5;;;;;;;11;79.59668;938.5578;;;;
2019/07/11 03:21:02;;;;;;;5.1;2.6;;;;;;;11.08;79.08691;938.4903;;;;
2019/07/11 03:23:27;;;;;;;5.6;3;;;;;;;11.28;78.74609;938.5478;;;;
2019/07/11 03:25:52;;;;;;;8.6;3.3;;;;;;;11.16;78.74805;938.4741;;;;
2019/07/11 03:28:19;;;;;;;4.4;2.7;;;;;;;10.92;79.98145;938.5189;;;;
2019/07/11 03:30:44;;;;;;;4.2;2.7;;;;;;;10.91;80.06152;938.4942;;;;
2019/07/11 03:33:10;;;;;;;5.7;2.9;;;;;;;11.01;79.53125;938.4592;;;;
2019/07/11 03:35:36;;;;;;;5.4;2.7;;;;;;;11.11;79.10352;938.5303;;;;
2019/07/11 03:38:01;;;;;;;5.4;2.8;;;;;;;11.03;79.46484;938.5002;;;;
2019/07/11 03:40:26;;;;;;;5.4;3;;;;;;;11.04;79.41016;938.5927;;;;
2019/07/11 03:42:51;;;;;;;6.4;3;;;;;;;10.94;79.82617;938.5804;;;;
2019/07/11 03:45:19;;;;;;;4.2;2.9;;;;;;;10.97;79.69434;938.5178;;;;
2019/07/11 03:47:41;;;;;;;4.7;3.1;;;;;;;11.01;79.51953;938.4592;;;;
2019/07/11 03:50:08;;;;;;;5.1;3;;;;;;;10.97;79.74023;938.4796;;;;
2019/07/11 03:52:32;;;;;;;6.8;3.5;;;;;;;10.94;79.74609;938.5033;;;;
2019/07/11 03:55:00;;;;;;;5.7;3.2;;;;;;;11.02;79.34961;938.4882;;;;
2019/07/11 03:57:25;;;;;;;5.1;3;;;;;;;10.93;79.61914;938.4792;;;;
2019/07/11 03:59:48;;;;;;;6.7;3;;;;;;;10.97;79.7627;938.4333;;;;
2019/07/11 04:07:47;;;;;;;6.5;2.9;;;;;;;10.97;79.79688;938.3649;;;;
2019/07/11 04:10:16;;;;;;;4.4;2.7;;;;;;;10.62;81.37695;938.4412;;;;
2019/07/11 04:12:40;;;;;;;5;3;;;;;;;10.64;81.3916;938.4645;;;;
2019/07/11 04:15:07;;;;;;;5.1;3.1;;;;;;;10.68;81.28809;938.3884;;;;
2019/07/11 04:17:33;;;;;;;3;2.7;;;;;;;10.64;81.5625;938.3753;;;;
2019/07/11 04:20:00;;;;;;;4.7;2.7;;;;;;;10.62;81.77637;938.3647;;;;
2019/07/11 04:22:30;;;;;;;7.8;3.2;;;;;;;10.79;81.12305;938.3567;;;;
2019/07/11 04:24:55;;;;;;;7;3.1;;;;;;;10.91;80.20996;938.2561;;;;
2019/07/11 04:27:20;;;;;;;5.3;2.7;;;;;;;11.25;78.98145;938.3253;;;;
2019/07/11 04:29:47;;;;;;;6.6;3;;;;;;;11.28;78.87012;938.276;;;;
2019/07/11 04:32:15;;;;;;;5.2;3.7;;;;;;;11.47;78.50586;938.2958;;;;
2019/07/11 04:34:39;;;;;;;6;3.2;;;;;;;11.19;79.13965;938.3061;;;;
2019/07/11 04:37:01;;;;;;;9.9;3;;;;;;;11.29;79.14844;938.2833;;;;
2019/07/11 04:39:32;;;;;;;4.7;3.1;;;;;;;11.59;77.77148;938.2375;;;;
2019/07/11 04:41:53;;;;;;;4;3;;;;;;;11.7;77.27637;938.2863;;;;
2019/07/11 04:44:15;;;;;;;9.3;3.3;;;;;;;12.03;76.16699;938.2455;;;;
2019/07/11 04:46:41;;;;;;;5.4;3.3;;;;;;;12.12;76.00977;938.1939;;;;
2019/07/11 04:49:09;;;;;;;3.9;2.8;;;;;;;12.31;75.08105;938.209;;;;
2019/07/11 04:51:35;;;;;;;7.8;2.9;;;;;;;12.03;76.04102;938.2414;;;;
2019/07/11 04:56:22;;;;;;;6.7;3;;;;;;;12.17;75.96289;938.2946;;;;
2019/07/11 04:58:50;;;;;;;5.3;2.8;;;;;;;12.58;74.02637;938.313;;;;
2019/07/11 05:01:17;;;;;;;7.4;2.8;;;;;;;12.73;73.71973;938.3574;;;;
2019/07/11 05:03:39;;;;;;;6.3;2.5;;;;;;;12.79;73.62793;938.415;;;;
2019/07/11 05:06:05;;;;;;;6.6;2.6;;;;;;;12.82;73.39063;938.421;;;;
2019/07/11 05:08:32;;;;;;;6.2;2.6;;;;;;;12.76;73.55078;938.3973;;;;
2019/07/11 05:10:59;;;;;;;4.8;2.6;;;;;;;12.82;73.33203;938.3578;;;;
2019/07/11 05:13:23;;;;;;;5.4;2.7;;;;;;;12.9;73.49512;938.345;;;;
2019/07/11 05:15:51;;;;;;;9.6;3.1;;;;;;;13.11;73.30078;938.3526;;;;
2019/07/11 05:18:17;;;;;;;5.8;2.8;;;;;;;13.37;72.98828;938.3091;;;;
2019/07/11 05:20:39;;;;;;;3.5;2.7;;;;;;;13.46;72.06055;938.3547;;;;
2019/07/11 05:23:03;;;;;;;6.6;3.8;;;;;;;13.21;72.94922;938.3552;;;;
2019/07/11 05:25:32;;;;;;;5.8;4.3;;;;;;;13.2;73.38477;938.3608;;;;
2019/07/11 05:27:55;;;;;;;13.4;5.7;;;;;;;13.38;72.63379;938.2866;;;;
2019/07/11 05:30:19;;;;;;;7.8;4.9;;;;;;;13.58;72.1377;938.2745;;;;
2019/07/11 05:32:45;;;;;;;7.8;4.3;;;;;;;13.92;70.98633;938.2766;;;;
2019/07/11 05:35:14;;;;;;;7.4;3;;;;;;;14.27;70.25879;938.1964;;;;
2019/07/11 05:37:35;;;;;;;4;2.3;;;;;;;14.53;68.2168;938.3045;;;;
2019/07/11 05:39:59;;;;;;;6.4;2.3;;;;;;;14.61;68.27441;938.2103;;;;
2019/07/11 05:42:25;;;;;;;5.7;2.4;;;;;;;15.23;66.0293;938.2358;;;;
2019/07/11 05:44:51;;;;;;;5;2.2;;;;;;;15.68;64.94141;938.1763;;;;
2019/07/11 05:47:16;;;;;;;5.6;2.2;;;;;;;15.73;63.67773;938.2184;;;;
2019/07/11 05:49:40;;;;;;;4.4;2.1;;;;;;;15.53;64.26074;938.2921;;;;
2019/07/11 05:52:06;;;;;;;5.6;2.3;;;;;;;15.5;64.32617;938.1158;;;;
2019/07/11 05:54:33;;;;;;;5;1.9;;;;;;;15.85;61.44043;938.0977;;;;
2019/07/11 05:56:59;;;;;;;7.5;2.2;;;;;;;16.18;62.77344;938.123;;;;
2019/07/11 05:59:20;;;;;;;9.6;2.6;;;;;;;16.29;62.8916;938.1275;;;;
2019/07/11 06:01:46;;;;;;;6.5;2.4;;;;;;;16.25;63.9502;938.0164;;;;
2019/07/11 06:04:17;;;;;;;5.9;2.5;;;;;;;16.07;63.65723;937.9308;;;;
2019/07/11 06:06:38;;;;;;;7.3;2.3;;;;;;;16.03;63.25879;937.9313;;;;
2019/07/11 06:09:04;;;;;;;6.4;2.2;;;;;;;16.47;65.62598;937.8884;;;;
2019/07/11 06:11:31;;;;;;;3.8;1.7;;;;;;;16.77;59.01172;937.8742;;;;
2019/07/11 06:13:55;;;;;;;3.6;1.8;;;;;;;16.67;58.60449;937.899;;;;
2019/07/11 06:16:20;;;;;;;3.2;1.7;;;;;;;16.93;62.3457;937.9412;;;;
2019/07/11 06:18:50;;;;;;;4;1.9;;;;;;;16.97;61.04199;937.9278;;;;
2019/07/11 06:21:16;;;;;;;4.6;2.1;;;;;;;17.27;58.46387;937.9427;;;;
2019/07/11 06:23:40;;;;;;;6.1;2.5;;;;;;;17.22;58.2959;937.9097;;;;
2019/07/11 06:26:09;;;;;;;7.3;2;;;;;;;17.03;58.01465;937.8217;;;;
2019/07/11 06:28:35;;;;;;;5.9;2.1;;;;;;;17.3;58.39941;937.8142;;;;
2019/07/11 06:31:01;;;;;;;4.7;2;;;;;;;18.96;54.66113;937.7464;;;;
2019/07/11 06:33:28;;;;;;;4.8;1.8;;;;;;;20.35;51.43555;937.7411;;;;
2019/07/11 06:35:56;;;;;;;8;1.7;;;;;;;21.21;48.42383;937.7153;;;;
2019/07/11 06:38:24;;;;;;;8;1.8;;;;;;;22.39;42.68848;937.7325;;;;
2019/07/11 06:40:47;;;;;;;3;1.2;;;;;;;23.04;41.43457;937.7012;;;;
2019/07/11 06:43:13;;;;;;;3.1;1.4;;;;;;;24.21;41.80273;937.6415;;;;
2019/07/11 06:45:37;;;;;;;3.2;1.4;;;;;;;25.09;37.09375;937.6088;;;;
2019/07/11 06:48:05;;;;;;;3.4;1.2;;;;;;;25.2;38.09375;937.5229;;;;
2019/07/11 06:50:32;;;;;;;3.5;1.3;;;;;;;25.42;38.24219;937.5672;;;;
2019/07/11 06:52:59;;;;;;;4.1;1.5;;;;;;;25.71;36.14063;937.614;;;;
2019/07/11 06:55:22;;;;;;;7.2;1.6;;;;;;;26.55;35.80566;937.6258;;;;
2019/07/11 06:57:53;;;;;;;4.4;1.5;;;;;;;25.84;36.54102;937.6108;;;;
2019/07/11 07:00:13;;;;;;;4.7;1.3;;;;;;;25.48;38.82715;937.601;;;;
2019/07/11 07:02:43;;;;;;;7.3;1.6;;;;;;;24.85;37.98145;937.5884;;;;
2019/07/11 07:05:08;;;;;;;6.4;1.5;;;;;;;26.09;35.48438;937.506;;;;
2019/07/11 07:07:34;;;;;;;5.6;1.7;;;;;;;27.35;33.92383;937.4579;;;;
2019/07/11 07:09:59;;;;;;;5.5;1.4;;;;;;;27.59;33.04102;937.3958;;;;
2019/07/11 07:12:22;;;;;;;5.4;2;;;;;;;27.8;31.47656;937.4107;;;;
2019/07/11 07:14:47;;;;;;;4.5;1.2;;;;;;;27.45;34.32227;937.3856;;;;
2019/07/11 07:17:13;;;;;;;2.4;1.2;;;;;;;28.02;33.95117;937.4082;;;;
2019/07/11 07:19:39;;;;;;;2.8;1.4;;;;;;;28.42;32.37598;937.408;;;;
2019/07/11 07:22:03;;;;;;;2.9;1.4;;;;;;;27.45;34.38184;937.4066;;;;
2019/07/11 07:24:33;;;;;;;4.1;1.4;;;;;;;26.58;33.97266;937.4288;;;;
2019/07/11 07:27:00;;;;;;;2.6;1.3;;;;;;;25.83;36.42188;937.3689;;;;
2019/07/11 07:29:22;;;;;;;4.9;1.6;;;;;;;25.63;36.99707;937.2903;;;;
2019/07/11 07:31:48;;;;;;;2.8;1.4;;;;;;;25.27;35.67969;937.308;;;;
2019/07/11 07:34:14;;;;;;;3.3;1.3;;;;;;;24.89;38.37402;937.2919;;;;
2019/07/11 07:36:40;;;;;;;4.2;1.3;;;;;;;25.35;38.96875;937.2687;;;;
2019/07/11 07:39:03;;;;;;;2.2;1.3;;;;;;;25.49;38.24805;937.356;;;;
2019/07/11 07:41:29;;;;;;;6.8;1.5;;;;;;;24.54;40.0293;937.288;;;;
2019/07/11 07:43:58;;;;;;;5.2;1.5;;;;;;;24.04;40.75;937.3205;;;;
2019/07/11 07:46:24;;;;;;;7.5;1.5;;;;;;;23.72;39.96777;937.303;;;;
2019/07/11 07:48:51;;;;;;;4.4;1.5;;;;;;;23.62;44.45313;937.2823;;;;
2019/07/11 07:51:16;;;;;;;6.7;1.6;;;;;;;23.35;43.22656;937.2485;;;;
2019/07/11 07:53:42;;;;;;;6.7;1.6;;;;;;;23.51;41.54883;937.2471;;;;
2019/07/11 07:56:05;;;;;;;4.7;1.5;;;;;;;23.81;41.23535;937.2202;;;;
2019/07/11 07:58:34;;;;;;;3;1.5;;;;;;;24.08;40.89551;937.1834;;;;
2019/07/11 08:00:58;;;;;;;5.2;1.5;;;;;;;25.44;36.04688;937.2559;;;;
2019/07/11 08:03:28;;;;;;;3.3;1.3;;;;;;;26.45;38.18848;937.2327;;;;
2019/07/11 08:05:47;;;;;;;6;1.3;;;;;;;27.7;33.13086;937.1876;;;;
2019/07/11 08:08:16;;;;;;;5.6;1.3;;;;;;;27.77;33.73047;937.1487;;;;
2019/07/11 08:10:39;;;;;;;2.8;1.3;;;;;;;26.25;36.33691;937.2286;;;;
2019/07/11 08:13:03;;;;;;;4.6;1.3;;;;;;;25.7;38.37207;937.1675;;;;
2019/07/11 08:15:28;;;;;;;3.6;1.7;;;;;;;25.51;34.78906;937.1839;;;;
2019/07/11 08:17:56;;;;;;;2.1;1.3;;;;;;;26.16;36.92188;937.1725;;;;
2019/07/11 08:20:21;;;;;;;2.8;1.2;;;;;;;26.67;34.00293;937.2144;;;;
2019/07/11 08:22:45;;;;;;;3.6;1.4;;;;;;;26.64;33.2666;937.2363;;;;
2019/07/11 08:25:09;;;;;;;4;1.2;;;;;;;25.72;36.95605;937.2332;;;;
2019/07/11 08:27:37;;;;;;;4.8;1.4;;;;;;;25.79;40.70996;937.2665;;;;
2019/07/11 08:30:03;;;;;;;3.9;1.5;;;;;;;24.87;41.61621;937.156;;;;
2019/07/11 08:32:26;;;;;;;2.9;1.5;;;;;;;25.27;40.37891;937.1685;;;;
2019/07/11 08:34:50;;;;;;;4.5;1.4;;;;;;;25.23;37.63672;937.1222;;;;
2019/07/11 08:37:18;;;;;;;3.1;1.4;;;;;;;25.01;40.32031;937.0817;;;;
2019/07/11 08:39:41;;;;;;;3.2;1.4;;;;;;;24.87;38.65625;937.0466;;;;
2019/07/11 08:42:07;;;;;;;3.9;1.5;;;;;;;24.77;38.97754;937.0628;;;;
2019/07/11 08:44:31;;;;;;;3.6;1.5;;;;;;;24.81;40.63086;937.0829;;;;
2019/07/11 08:46:57;;;;;;;3;1.5;;;;;;;24.13;43.77344;937.0463;;;;
2019/07/11 08:49:24;;;;;;;3.4;1.4;;;;;;;24.04;38.67773;937.0953;;;;
2019/07/11 08:51:48;;;;;;;2.7;1.4;;;;;;;23.65;38.63281;937.0739;;;;
2019/07/11 08:54:16;;;;;;;3.7;1.3;;;;;;;23.52;37.97461;937.0887;;;;
2019/07/11 08:56:40;;;;;;;2.9;1.2;;;;;;;23.34;40.0166;937.1236;;;;
2019/07/11 08:59:04;;;;;;;3.9;1.4;;;;;;;23.36;44.19141;937.0524;;;;
2019/07/11 09:01:28;;;;;;;3.5;1.4;;;;;;;23.12;44.89551;937.0181;;;;
2019/07/11 09:03:54;;;;;;;3.1;1.4;;;;;;;23.28;44.38281;936.9908;;;;
2019/07/11 09:06:23;;;;;;;4.3;1.5;;;;;;;23.89;41.83203;937.0297;;;;
2019/07/11 09:08:44;;;;;;;4.6;1.3;;;;;;;24.35;40.41309;937.0133;;;;
2019/07/11 09:11:10;;;;;;;3.7;1.3;;;;;;;24.32;38.72559;937.01;;;;
2019/07/11 09:13:34;;;;;;;3;1.4;;;;;;;24.15;36.49609;936.9398;;;;
2019/07/11 09:16:08;;;;;;;5.1;1.2;;;;;;;24.52;37.37598;936.9709;;;;
2019/07/11 09:18:26;;;;;;;3.8;1.1;;;;;;;24.28;36.93164;936.8892;;;;
2019/07/11 09:20:52;;;;;;;3;1.4;;;;;;;24.18;36.85352;936.9041;;;;
2019/07/11 09:23:24;;;;;;;4;1.2;;;;;;;24.18;37.27734;936.9692;;;;
2019/07/11 09:25:44;;;;;;;3.2;1.2;;;;;;;24.31;39.07813;936.98;;;;
2019/07/11 09:28:10;;;;;;;2.7;1.2;;;;;;;24.39;39.29785;936.9893;;;;
2019/07/11 09:30:33;;;;;;;3.7;1.4;;;;;;;24.27;40.12305;937.0037;;;;
2019/07/11 09:33:02;;;;;;;4.2;1.2;;;;;;;24.25;40.92285;936.989;;;;
2019/07/11 09:35:24;;;;;;;4.7;1.3;;;;;;;24.21;39.56445;936.9906;;;;
2019/07/11 09:37:49;;;;;;;3.5;1.1;;;;;;;24.41;39.0166;936.97;;;;
2019/07/11 09:40:14;;;;;;;6.4;1.3;;;;;;;24.36;37.49219;937.0421;;;;
2019/07/11 09:42:39;;;;;;;3;1.3;;;;;;;24.4;38.47363;936.9881;;;;
2019/07/11 09:45:08;;;;;;;3.3;1.2;;;;;;;24.42;37.99121;937.0119;;;;
2019/07/11 09:47:31;;;;;;;2.2;1.2;;;;;;;24.04;35.62891;937.0291;;;;
2019/07/11 09:49:58;;;;;;;3.6;1.3;;;;;;;23.89;36.27539;937.0517;;;;
2019/07/11 09:52:22;;;;;;;2.3;1.1;;;;;;;23.98;37.58984;937.06;;;;
2019/07/11 09:54:54;;;;;;;9.5;3;;;;;;;23.84;36.55371;937.0298;;;;
2019/07/11 09:57:13;;;;;;;13.3;3.8;;;;;;;23.84;38.66016;937.0168;;;;
2019/07/11 09:59:39;;;;;;;3.8;1.4;;;;;;;23.9;35.86523;937.0585;;;;
2019/07/11 10:02:04;;;;;;;11.1;4.4;;;;;;;23.89;39.91113;937.0309;;;;
2019/07/11 10:04:29;;;;;;;3.9;1.6;;;;;;;23.99;39.01465;937.1019;;;;
2019/07/11 10:06:56;;;;;;;7.1;2.1;;;;;;;24.05;38.4082;937.0539;;;;
2019/07/11 10:09:25;;;;;;;14.5;2.4;;;;;;;24.46;38.92676;937.0833;;;;
2019/07/11 10:11:45;;;;;;;5.8;1.4;;;;;;;24.98;37.50781;937.0652;;;;
2019/07/11 10:14:12;;;;;;;5.5;1.2;;;;;;;25.17;37.18262;937.0844;;;;
2019/07/11 10:16:47;;;;;;;4.5;1.2;;;;;;;25.15;35.66992;937.0959;;;;
2019/07/11 10:19:03;;;;;;;5.5;1.4;;;;;;;25.33;34.12598;937.1119;;;;
2019/07/11 10:21:31;;;;;;;7.3;1.8;;;;;;;25.79;36.11133;937.1269;;;;
2019/07/11 10:23:54;;;;;;;3.8;1.4;;;;;;;25.92;35.40039;937.0845;;;;
2019/07/11 10:26:33;;;;;;;5.1;1.5;;;;;;;25.85;37.30957;937.0784;;;;
2019/07/11 10:28:44;;;;;;;3.1;1.5;;;;;;;25.98;38.59766;937.0368;;;;
2019/07/11 10:31:13;;;;;;;5.2;1.6;;;;;;;26.15;38.46973;937.0051;;;;
2019/07/11 10:33:42;;;;;;;7.6;1.8;;;;;;;26.41;37.59277;936.9863;;;;
2019/07/11 10:36:07;;;;;;;5;1.7;;;;;;;26.29;38.87305;937.0266;;;;
2019/07/11 10:38:32;;;;;;;3.9;1.5;;;;;;;26.3;37.05176;937.0685;;;;
2019/07/11 10:40:58;;;;;;;4.4;1.3;;;;;;;26.15;37.80762;937.0666;;;;
2019/07/11 10:43:28;;;;;;;4.5;1.4;;;;;;;25.53;39.75195;937.1281;;;;
2019/07/11 10:45:56;;;;;;;2.8;1.3;;;;;;;25.27;41.07422;937.0823;;;;
2019/07/11 10:48:21;;;;;;;3.2;1.2;;;;;;;24.74;43.52734;937.1145;;;;
2019/07/11 10:50:46;;;;;;;9.7;1.5;;;;;;;24.72;40.48242;937.165;;;;
2019/07/11 10:53:11;;;;;;;3.6;1.1;;;;;;;24.52;44.2832;937.1964;;;;
2019/07/11 10:55:39;;;;;;;3.3;1.2;;;;;;;24.54;40.63086;937.1147;;;;
2019/07/11 10:58:02;;;;;;;2.8;1.3;;;;;;;24.34;38.82129;937.1577;;;;
2019/07/11 11:00:27;;;;;;;4.6;1.3;;;;;;;24.02;42.03125;937.2065;;;;
2019/07/11 11:02:53;;;;;;;5.5;1.5;;;;;;;24.02;44.94043;937.2184;;;;
2019/07/11 11:05:18;;;;;;;2.7;1.2;;;;;;;23.5;46.31055;937.3002;;;;
2019/07/11 11:07:43;;;;;;;4.6;1.3;;;;;;;23.19;49.68652;937.125;;;;
2019/07/11 11:10:10;;;;;;;2.6;1.2;;;;;;;22.63;49.18945;937.1186;;;;
2019/07/11 11:12:38;;;;;;;3.6;1.2;;;;;;;22.91;45.0166;937.226;;;;
2019/07/11 11:15:01;;;;;;;2.9;1.1;;;;;;;22.8;47.40039;937.1721;;;;
2019/07/11 11:17:25;;;;;;;5.3;1.5;;;;;;;22.97;44.82227;937.204;;;;
2019/07/11 11:19:48;;;;;;;4.5;1.4;;;;;;;22.91;45.97949;937.226;;;;
2019/07/11 11:22:16;;;;;;;3.5;1.3;;;;;;;22.76;45.68164;937.3256;;;;
2019/07/11 11:24:38;;;;;;;2.6;1.2;;;;;;;22.8;46.70801;937.2241;;;;
2019/07/11 11:27:04;;;;;;;5.8;1.7;;;;;;;22.83;48.31836;937.2902;;;;
2019/07/11 11:29:29;;;;;;;4.4;1.6;;;;;;;22.87;47.33691;937.3186;;;;
2019/07/11 11:31:58;;;;;;;4.3;1.6;;;;;;;22.81;49.72656;937.3348;;;;
2019/07/11 11:34:24;;;;;;;4.2;1.4;;;;;;;21.78;48.65039;937.2863;;;;
2019/07/11 11:36:53;;;;;;;3.1;1.2;;;;;;;20.9;52.23633;937.3825;;;;
2019/07/11 11:39:18;;;;;;;3.5;1.3;;;;;;;20.47;56.30859;937.4196;;;;
2019/07/11 11:41:42;;;;;;;2.6;1.3;;;;;;;20.08;55.5;937.4932;;;;
2019/07/11 11:44:09;;;;;;;4.1;1.1;;;;;;;20.05;55.1582;937.5052;;;;
2019/07/11 11:46:33;;;;;;;3.9;1.2;;;;;;;19.54;55.80566;937.5297;;;;
2019/07/11 11:48:58;;;;;;;6.9;1.3;;;;;;;19.38;56.36719;937.576;;;;
2019/07/11 11:51:24;;;;;;;5.9;1.4;;;;;;;19.72;59.60547;937.5405;;;;
2019/07/11 11:53:50;;;;;;;4.2;1.4;;;;;;;19.38;59.31641;937.575;;;;
2019/07/11 11:56:16;;;;;;;2.7;1.3;;;;;;;19.8;60.65625;937.5422;;;;
2019/07/11 11:58:40;;;;;;;2.6;1.3;;;;;;;19.88;60.33984;937.5195;;;;
2019/07/11 12:01:08;;;;;;;3.4;1.2;;;;;;;19.89;59.8623;937.5045;;;;
2019/07/11 12:03:35;;;;;;;4;1.5;;;;;;;19.95;62.21582;937.4705;;;;
2019/07/11 12:06:02;;;;;;;5.8;1.5;;;;;;;20.14;60.21094;937.4113;;;;
2019/07/11 12:08:26;;;;;;;2.8;1.4;;;;;;;20.01;58.92188;937.4026;;;;
2019/07/11 12:10:52;;;;;;;3.9;1.4;;;;;;;19.98;60.23633;937.4147;;;;
2019/07/11 12:13:17;;;;;;;2.4;1.4;;;;;;;20.01;60.85938;937.4623;;;;
2019/07/11 12:15:46;;;;;;;3.1;1.5;;;;;;;19.73;60.59961;937.4908;;;;
2019/07/11 12:18:08;;;;;;;3.3;1.4;;;;;;;19.62;62.43652;937.4589;;;;
2019/07/11 12:20:34;;;;;;;2.3;1.5;;;;;;;19.77;61.67773;937.43;;;;
2019/07/11 12:23:00;;;;;;;3.9;2;;;;;;;19.92;62.77246;937.4228;;;;
2019/07/11 12:25:31;;;;;;;3.8;1.6;;;;;;;19.98;58.79004;937.3769;;;;
2019/07/11 12:27:59;;;;;;;4.1;1.5;;;;;;;20.14;62.83789;937.3805;;;;
2019/07/11 12:30:31;;;;;;;3.3;1.4;;;;;;;20.19;58.73535;937.3703;;;;
2019/07/11 12:32:57;;;;;;;5.4;1.6;;;;;;;19.95;59.15918;937.3283;;;;
2019/07/11 12:35:21;;;;;;;4;1.6;;;;;;;20.16;61.07813;937.3226;;;;
2019/07/11 12:37:47;;;;;;;6.2;1.7;;;;;;;20.2;57.64063;937.2428;;;;
2019/07/11 12:40:18;;;;;;;3.1;1.4;;;;;;;20.18;58.79297;937.2161;;;;
2019/07/11 12:42:40;;;;;;;3.4;1.5;;;;;;;20.15;61.92871;937.2759;;;;
2019/07/11 12:45:09;;;;;;;3.5;1.7;;;;;;;20.07;66.10645;937.2614;;;;
2019/07/11 12:47:36;;;;;;;3.1;1.2;;;;;;;20.04;58.82031;937.2008;;;;
2019/07/11 12:50:00;;;;;;;3.5;1.3;;;;;;;19.92;60.74121;937.1264;;;;
2019/07/11 12:52:25;;;;;;;1.6;1.1;;;;;;;19.87;59.80176;937.1545;;;;
2019/07/11 12:54:56;;;;;;;2.2;1.2;;;;;;;19.92;61.79199;937.2418;;;;
2019/07/11 12:57:16;;;;;;;2.7;1.4;;;;;;;20;60.71875;937.3131;;;;
2019/07/11 12:59:41;;;;;;;3.3;1.3;;;;;;;20;61.79199;937.2523;;;;
2019/07/11 13:02:06;;;;;;;1.7;1.2;;;;;;;20.13;58.08496;937.1975;;;;
2019/07/11 13:04:32;;;;;;;2.7;1.5;;;;;;;20.09;64.18359;937.1976;;;;
2019/07/11 13:06:58;;;;;;;3;1.2;;;;;;;20.16;60.30762;937.2839;;;;
2019/07/11 13:09:23;;;;;;;2.1;1.3;;;;;;;20.12;60.79199;937.1855;;;;
2019/07/11 13:11:46;;;;;;;3.7;1.6;;;;;;;20.4;64.86035;937.2809;;;;
2019/07/11 13:14:19;;;;;;;2.3;1.6;;;;;;;20.4;62.0459;937.2679;;;;
2019/07/11 13:16:36;;;;;;;2.3;1.4;;;;;;;20.51;67.49316;937.2839;;;;
2019/07/11 13:19:05;;;;;;;2.8;1.5;;;;;;;20.39;67.8252;937.3606;;;;
2019/07/11 13:21:37;;;;;;;2.8;1.3;;;;;;;20.37;58.03516;937.3936;;;;
2019/07/11 13:23:54;;;;;;;3.2;1.4;;;;;;;19.95;57.13965;937.4456;;;;
2019/07/11 13:26:20;;;;;;;3.1;1.3;;;;;;;19.71;64.82813;937.5673;;;;
2019/07/11 13:28:45;;;;;;;3;1.4;;;;;;;19.71;60.12988;937.5156;;;;
2019/07/11 13:31:22;;;;;;;2.2;1.4;;;;;;;19.39;59.96973;937.4965;;;;
2019/07/11 13:33:35;;;;;;;2.6;1.6;;;;;;;19.55;66.86914;937.5753;;;;
2019/07/11 13:36:03;;;;;;;3.4;1.3;;;;;;;19.39;65.49316;937.5223;;;;
2019/07/11 13:38:29;;;;;;;2.7;1.5;;;;;;;19.57;64.49414;937.447;;;;
2019/07/11 13:40:54;;;;;;;3.6;1.6;;;;;;;19.45;71.5957;937.5235;;;;
2019/07/11 13:43:22;;;;;;;3.3;1.8;;;;;;;19.44;66.87598;937.4509;;;;
2019/07/11 13:45:48;;;;;;;3.4;2;;;;;;;19.34;64.51758;937.4647;;;;
2019/07/11 13:48:11;;;;;;;2.6;1.6;;;;;;;19.61;64.93066;937.4808;;;;
2019/07/11 13:50:35;;;;;;;3.9;2;;;;;;;19.58;68.88965;937.5106;;;;
2019/07/11 13:53:02;;;;;;;3.6;1.7;;;;;;;19.57;65.57813;937.5256;;;;
2019/07/11 13:55:25;;;;;;;2.7;1.7;;;;;;;19.61;68.14746;937.5195;;;;
2019/07/11 13:57:54;;;;;;;4;1.5;;;;;;;19.52;66.74805;937.4927;;;;
2019/07/11 14:00:16;;;;;;;1.9;1.5;;;;;;;19.36;69.98633;937.4359;;;;
2019/07/11 14:02:41;;;;;;;2.6;1.6;;;;;;;19.34;70.78516;937.4866;;;;
2019/07/11 14:05:05;;;;;;;1.7;1.4;;;;;;;19.11;69.21387;937.5023;;;;
2019/07/11 14:07:32;;;;;;;4.3;2;;;;;;;19;71.45215;937.4742;;;;
2019/07/11 14:09:57;;;;;;;5;1.6;;;;;;;19.01;69.27832;937.4902;;;;
2019/07/11 14:12:21;;;;;;;3.2;1.7;;;;;;;19.14;71.7666;937.5331;;;;
2019/07/11 14:14:47;;;;;;;3.4;2;;;;;;;19.01;73.17773;937.5627;;;;
2019/07/11 14:17:13;;;;;;;3.2;1.8;;;;;;;18.85;71.92871;937.5754;;;;
2019/07/11 14:19:37;;;;;;;2.3;1.7;;;;;;;18.83;71.77441;937.5566;;;;
2019/07/11 14:22:02;;;;;;;2.6;1.8;;;;;;;18.87;71.69922;937.637;;;;
2019/07/11 14:24:27;;;;;;;4.3;1.9;;;;;;;18.78;73.46484;937.6744;;;;